Baumholder, Germany

1:56 PM CET on December 29, 2014 (GMT +0100)
IRHEINLA46 | Change Station
CLOSE
Current Station
Personal Weather Station
Location: Idar-Oberstein, RHEINLAND-PFALZ
Elevation: 971 ft
Nearby Weather Stations

Elev 971 ft 49.72 °N, 7.30 °E | Updated 1 minute ago

Light Snow
Light Snow Low Drifting Snow Mist
35.2 °F
Feels Like 35 °F
N
0.8
Wind Variable Wind from South
Gusts 1.1 mph

Today
High -- | Low -- °F
--% Chance of Precip.
Yesterday
High -- | Low -- °F
Precip. -- in
8:27 AM 4:38 PM
First Quarter, 58% visible
Pressure 30.36 in
Visibility 0.9 miles
Clouds Few 100 ft
Mostly Cloudy 200 ft
Windchill 35 °F
Dew Point 30 °F
Humidity 80%
Rainfall 0.02 in
Snow Depth Not available.
UV 0 out of 12
Pollen Not available.
Air Quality Not available.
Flu Activity Not available.
METAR EDFH 291250Z 28008KT 260V320 1500 -SN DRSN BR FEW001 BKN002 M02/M02 Q1028

More Conditions Fewer Conditions

Pressure 30.36 in
Visibility 0.9 miles
Clouds Few 100 ft
Mostly Cloudy 200 ft
Windchill 35 °F
Dew Point 30 °F
Humidity 80%
Rainfall 0.02 in
Snow Depth Not available.
UV 0 out of 12
Pollen Not available.
Air Quality Not available.
Flu Activity Not available.
METAR EDFH 291250Z 28008KT 260V320 1500 -SN DRSN BR FEW001 BKN002 M02/M02 Q1028

More Conditions Fewer Conditions

10-Day Weather Forecast

Almanac

Astronomy

Dec. 29, 2014 Rise Set
Actual Time
Civil Twilight
Nautical Twilight
Astronomical Twilight
Moon
Length of Visible Light
Length of Day
Tomorrow will be .
, % of the Moon is Illuminated

Today's Extremes

Country Highs Country Lows

Community

WunderPhotos

Upload Photos

1,781,574 photos uploaded!

WunderBlogs® & News

Nearby

Air Quality

  Air Quality AQ Index Pollutant
Not available.

Snow Depth

Station Depth Elevation

Earthquake Activity

City Distance Mag. Time & Date
Minimum magnitude displayed is 2.5.

Coastal Water Temperatures

Place Temperature

Nearby Weather Stations